Time;durP1;ratioP1;P1;durP2;ratioP2;P2;SDS_P1;SDS_P2;PMS_P1;PMS_P2;Temp;Humidity;BMP_temperature;BMP_pressure;BME280_temperature;BME280_humidity;BME280_pressure;Samples;Min_cycle;Max_cycle;Signal;HPM_P1;HPM_P2
2021/08/01 00:01:40;;;;;;;9.80;8.77;;;;;;;;;;5067934;28;20398;-95
2021/08/01 00:04:07;;;;;;;10.48;9.40;;;;;;;;;;5068048;28;20882;-95
2021/08/01 00:06:34;;;;;;;10.52;9.27;;;;;;;;;;5050459;28;20448;-95
2021/08/01 00:09:02;;;;;;;10.05;9.05;;;;;;;;;;5068212;28;20410;-95
2021/08/01 00:11:31;;;;;;;10.30;9.30;;;;;;;;;;5048247;28;20411;-95
2021/08/01 00:13:58;;;;;;;11.48;9.20;;;;;;;;;;5048164;28;20407;-96
2021/08/01 00:16:25;;;;;;;9.98;8.70;;;;;;;;;;5067674;28;20418;-95
2021/08/01 00:18:52;;;;;;;10.02;9.10;;;;;;;;;;5068032;28;20525;-93
2021/08/01 00:21:19;;;;;;;10.13;9.03;;;;;;;;;;5067745;28;20406;-95
2021/08/01 00:23:46;;;;;;;10.35;8.65;;;;;;;;;;5067922;28;20425;-94
2021/08/01 00:26:15;;;;;;;9.85;8.70;;;;;;;;;;5050261;28;20418;-95
2021/08/01 00:28:42;;;;;;;11.70;9.32;;;;;;;;;;5049758;28;20722;-95
2021/08/01 00:31:09;;;;;;;10.27;8.90;;;;;;;;;;5067920;28;20410;-94
2021/08/01 00:33:36;;;;;;;10.43;9.43;;;;;;;;;;5067875;28;20510;-95
2021/08/01 00:36:03;;;;;;;11.38;9.88;;;;;;;;;;5067744;28;20409;-95
2021/08/01 00:38:30;;;;;;;10.30;9.10;;;;;;;;;;5068240;28;20788;-94
2021/08/01 00:40:57;;;;;;;11.57;9.20;;;;;;;;;;5047965;28;20434;-94
2021/08/01 00:43:25;;;;;;;11.03;9.43;;;;;;;;;;5045989;28;20418;-95
2021/08/01 00:45:52;;;;;;;10.27;9.25;;;;;;;;;;5029349;28;20427;-92
2021/08/01 00:48:23;;;;;;;10.82;9.73;;;;;;;;;;5047589;28;20407;-94
2021/08/01 00:50:51;;;;;;;11.50;10.27;;;;;;;;;;5049758;28;20403;-95
2021/08/01 00:53:17;;;;;;;11.35;10.18;;;;;;;;;;5067533;28;20437;-94
2021/08/01 00:55:45;;;;;;;10.10;9.10;;;;;;;;;;5070044;28;20487;-95
2021/08/01 00:58:11;;;;;;;11.05;9.95;;;;;;;;;;5071974;28;20429;-95
2021/08/01 01:01:05;;;;;;;12.23;9.38;;;;;;;;;;5053687;28;20398;-96
2021/08/01 01:03:42;;;;;;;11.20;9.98;;;;;;;;;;5070401;28;20418;-95
2021/08/01 01:06:18;;;;;;;10.98;9.88;;;;;;;;;;5053086;28;20496;-95
2021/08/01 01:08:51;;;;;;;12.65;10.60;;;;;;;;;;5071294;28;20431;-95
2021/08/01 01:11:20;;;;;;;12.10;10.88;;;;;;;;;;5070833;28;20451;-95
2021/08/01 01:13:50;;;;;;;11.57;10.38;;;;;;;;;;5070894;28;20401;-95
2021/08/01 01:16:19;;;;;;;12.43;11.23;;;;;;;;;;5071182;28;20393;-95
2021/08/01 01:18:49;;;;;;;12.47;11.13;;;;;;;;;;5071096;28;20401;-95
2021/08/01 01:21:46;;;;;;;13.63;11.57;;;;;;;;;;5071034;28;20405;-95
2021/08/01 01:24:15;;;;;;;13.17;11.87;;;;;;;;;;5071345;28;20413;-94
2021/08/01 01:26:51;;;;;;;14.00;11.50;;;;;;;;;;5070833;28;20507;-95
2021/08/01 01:29:22;;;;;;;12.75;11.55;;;;;;;;;;5070940;28;20405;-96
2021/08/01 01:31:59;;;;;;;12.60;11.30;;;;;;;;;;5070846;28;20418;-95
2021/08/01 01:34:30;;;;;;;12.63;11.13;;;;;;;;;;5070738;28;20467;-96
2021/08/01 01:37:02;;;;;;;11.88;10.68;;;;;;;;;;5066535;28;20428;-96
2021/08/01 01:39:30;;;;;;;11.90;10.65;;;;;;;;;;5070541;28;20417;-95
2021/08/01 01:41:59;;;;;;;12.35;10.65;;;;;;;;;;5062150;28;20422;-94
2021/08/01 01:44:27;;;;;;;13.35;10.57;;;;;;;;;;5070403;28;20406;-95
2021/08/01 01:46:56;;;;;;;12.33;11.13;;;;;;;;;;5070145;28;20426;-95
2021/08/01 01:49:24;;;;;;;12.57;11.23;;;;;;;;;;5070793;28;20405;-94
2021/08/01 01:51:52;;;;;;;12.25;11.00;;;;;;;;;;5052565;28;20398;-94
2021/08/01 01:54:22;;;;;;;11.70;10.50;;;;;;;;;;5070688;28;20402;-94
2021/08/01 01:56:50;;;;;;;11.48;10.45;;;;;;;;;;5052645;28;20942;-93
2021/08/01 01:59:17;;;;;;;11.90;10.70;;;;;;;;;;5070602;28;20413;-95
2021/08/01 02:01:44;;;;;;;11.95;10.57;;;;;;;;;;5070390;28;20414;-95
2021/08/01 02:04:11;;;;;;;11.98;10.77;;;;;;;;;;5070600;28;20402;-94
2021/08/01 02:06:40;;;;;;;13.70;10.27;;;;;;;;;;5051454;28;20452;-94
2021/08/01 02:09:16;;;;;;;11.52;10.32;;;;;;;;;;5070483;28;20455;-95
2021/08/01 02:11:50;;;;;;;11.57;10.32;;;;;;;;;;5070446;28;20418;-94
2021/08/01 02:14:21;;;;;;;14.38;10.77;;;;;;;;;;5070276;28;20417;-95
2021/08/01 02:16:51;;;;;;;12.00;10.85;;;;;;;;;;5070277;28;20409;-95
2021/08/01 02:19:22;;;;;;;12.98;10.60;;;;;;;;;;5070356;28;20414;-95
2021/08/01 02:21:50;;;;;;;14.35;11.23;;;;;;;;;;5070337;28;20410;-95
2021/08/01 02:24:19;;;;;;;12.13;10.80;;;;;;;;;;5070532;28;20432;-94
2021/08/01 02:26:50;;;;;;;12.15;10.68;;;;;;;;;;5069868;28;20417;-94
2021/08/01 02:29:17;;;;;;;12.05;10.80;;;;;;;;;;5070192;28;20459;-95
2021/08/01 02:31:45;;;;;;;12.05;10.80;;;;;;;;;;5052325;28;20424;-96
2021/08/01 02:34:12;;;;;;;12.97;11.10;;;;;;;;;;5070225;28;20630;-94
2021/08/01 02:36:40;;;;;;;11.95;10.75;;;;;;;;;;5069959;28;20977;-95
2021/08/01 02:39:09;;;;;;;12.32;10.98;;;;;;;;;;5069848;28;20467;-95
2021/08/01 02:41:38;;;;;;;11.70;10.50;;;;;;;;;;5069763;28;20417;-95
2021/08/01 02:44:11;;;;;;;12.70;11.13;;;;;;;;;;5069946;28;20405;-94
2021/08/01 02:46:41;;;;;;;12.43;10.93;;;;;;;;;;5070069;28;20421;-96
2021/08/01 02:49:16;;;;;;;12.18;11.07;;;;;;;;;;5070380;28;20793;-95
2021/08/01 02:51:47;;;;;;;11.82;10.65;;;;;;;;;;5069685;28;20417;-95
2021/08/01 02:54:16;;;;;;;11.73;10.63;;;;;;;;;;5052975;28;20398;-95
2021/08/01 02:56:44;;;;;;;11.75;10.38;;;;;;;;;;5057848;28;20406;-95
2021/08/01 02:59:14;;;;;;;12.10;10.90;;;;;;;;;;5076419;28;20445;-96
2021/08/01 03:01:42;;;;;;;13.52;11.95;;;;;;;;;;5059162;28;20469;-94
2021/08/01 03:04:13;;;;;;;14.27;11.63;;;;;;;;;;5075418;28;20409;-93
2021/08/01 03:06:41;;;;;;;15.03;12.77;;;;;;;;;;5052835;28;20413;-95
2021/08/01 03:09:08;;;;;;;14.30;12.90;;;;;;;;;;5068958;28;20410;-94
2021/08/01 03:11:35;;;;;;;15.23;13.45;;;;;;;;;;5069021;28;20418;-92
2021/08/01 03:14:04;;;;;;;15.80;14.20;;;;;;;;;;5068841;28;20869;-91
2021/08/01 03:16:32;;;;;;;17.20;15.32;;;;;;;;;;5068440;28;20410;-92
2021/08/01 03:18:59;;;;;;;16.52;14.82;;;;;;;;;;5048134;28;20791;-92
2021/08/01 03:21:26;;;;;;;20.25;15.45;;;;;;;;;;5060999;28;20734;-88
2021/08/01 03:23:53;;;;;;;24.27;16.58;;;;;;;;;;5062353;28;21350;-88
2021/08/01 03:26:20;;;;;;;23.40;16.50;;;;;;;;;;5066156;28;20885;-89
2021/08/01 03:28:46;;;;;;;13.98;11.77;;;;;;;;;;5066091;28;20878;-89
2021/08/01 03:31:13;;;;;;;15.90;12.65;;;;;;;;;;5063023;28;20772;-88
2021/08/01 03:33:44;;;;;;;15.20;12.75;;;;;;;;;;5065349;28;20408;-89
2021/08/01 03:36:12;;;;;;;16.73;14.93;;;;;;;;;;5048782;28;20414;-89
2021/08/01 03:38:38;;;;;;;15.30;13.70;;;;;;;;;;5067227;28;20406;-90
2021/08/01 03:41:05;;;;;;;16.33;14.20;;;;;;;;;;5050263;28;20432;-90
2021/08/01 03:43:32;;;;;;;15.80;14.10;;;;;;;;;;5067202;28;20420;-89
2021/08/01 03:45:59;;;;;;;16.43;13.90;;;;;;;;;;5067962;28;20471;-89
2021/08/01 03:48:27;;;;;;;15.50;13.55;;;;;;;;;;5050551;28;20413;-89
2021/08/01 03:50:55;;;;;;;14.02;12.55;;;;;;;;;;5068596;28;20471;-90
2021/08/01 03:53:22;;;;;;;14.18;12.68;;;;;;;;;;5068226;28;20433;-90
2021/08/01 03:55:49;;;;;;;13.10;11.80;;;;;;;;;;5068183;28;20402;-91
2021/08/01 03:58:16;;;;;;;13.50;12.10;;;;;;;;;;5051005;28;20410;-90
2021/08/01 04:00:47;;;;;;;14.60;12.10;;;;;;;;;;5055669;28;20408;-92
2021/08/01 04:03:14;;;;;;;16.02;14.38;;;;;;;;;;5062062;28;20394;-91
2021/08/01 04:05:41;;;;;;;15.75;14.13;;;;;;;;;;5067849;28;20889;-91
2021/08/01 04:08:10;;;;;;;14.18;12.68;;;;;;;;;;5068222;28;20454;-91
2021/08/01 04:10:38;;;;;;;14.23;12.82;;;;;;;;;;5067962;28;20444;-91
2021/08/01 04:13:05;;;;;;;14.27;12.77;;;;;;;;;;5068332;28;20433;-92
2021/08/01 04:15:32;;;;;;;15.45;13.85;;;;;;;;;;5068612;28;20489;-92
2021/08/01 04:18:01;;;;;;;14.63;13.13;;;;;;;;;;5068714;28;20409;-91
2021/08/01 04:20:29;;;;;;;15.20;13.65;;;;;;;;;;5068380;28;20897;-91
2021/08/01 04:22:56;;;;;;;14.70;13.20;;;;;;;;;;5067964;28;20433;-92
2021/08/01 04:25:25;;;;;;;15.52;13.60;;;;;;;;;;5068586;28;20971;-91
2021/08/01 04:27:53;;;;;;;15.38;13.90;;;;;;;;;;5068018;28;20414;-91
2021/08/01 04:30:21;;;;;;;15.02;13.52;;;;;;;;;;5067810;28;20413;-91
2021/08/01 04:32:48;;;;;;;15.77;14.07;;;;;;;;;;5067961;28;20889;-92
2021/08/01 04:35:15;;;;;;;16.40;13.25;;;;;;;;;;5068107;28;20413;-92
2021/08/01 04:37:42;;;;;;;14.70;13.10;;;;;;;;;;5067346;28;20408;-92
2021/08/01 04:40:09;;;;;;;16.08;14.38;;;;;;;;;;5068192;28;20948;-94
2021/08/01 04:42:38;;;;;;;16.48;14.68;;;;;;;;;;5067777;28;20410;-93
2021/08/01 04:45:05;;;;;;;14.35;12.90;;;;;;;;;;5067640;28;20421;-93
2021/08/01 04:47:32;;;;;;;15.50;13.80;;;;;;;;;;5061002;28;20421;-93
2021/08/01 04:50:00;;;;;;;15.55;13.90;;;;;;;;;;5068507;28;20402;-93
2021/08/01 04:52:26;;;;;;;15.60;13.70;;;;;;;;;;5068606;28;20410;-93
2021/08/01 04:54:53;;;;;;;17.57;13.60;;;;;;;;;;5068045;28;20416;-93
2021/08/01 04:57:20;;;;;;;14.95;13.48;;;;;;;;;;5067733;28;20429;-92
2021/08/01 04:59:49;;;;;;;14.98;13.35;;;;;;;;;;5068211;28;20406;-94
2021/08/01 05:02:15;;;;;;;14.05;12.63;;;;;;;;;;5068077;28;20410;-78
2021/08/01 05:04:50;;;;;;;15.93;12.63;;;;;;;;;;5079638;28;20426;-96
2021/08/01 05:07:18;;;;;;;14.52;13.02;;;;;;;;;;5071181;28;20414;-96
2021/08/01 05:09:45;;;;;;;13.70;12.23;;;;;;;;;;5065125;28;20501;-77
2021/08/01 05:12:12;;;;;;;14.20;12.80;;;;;;;;;;5063378;28;20497;-93
2021/08/01 05:14:41;;;;;;;13.57;12.13;;;;;;;;;;5068780;28;20412;-96
2021/08/01 05:37:44;;;;;;;12.25;10.95;;;;;;;;;;5089599;28;20409;-95
2021/08/01 05:40:17;;;;;;;14.23;12.30;;;;;;;;;;5193396;22;20382;-95
2021/08/01 05:42:44;;;;;;;13.20;11.80;;;;;;;;;;5104711;28;20383;-96
2021/08/01 05:45:14;;;;;;;14.95;11.25;;;;;;;;;;5120363;28;20421;-96
2021/08/01 10:51:41;;;;;;;3.80;2.40;;;;;;;;;;5039703;28;20425;-96
2021/08/01 10:54:32;;;;;;;3.28;2.65;;;;;;;;;;5031955;28;20403;-96
2021/08/01 10:57:19;;;;;;;4.38;2.33;;;;;;;;;;5024685;28;20411;-96
2021/08/01 11:00:08;;;;;;;4.03;2.55;;;;;;;;;;5028465;28;20436;-96
2021/08/01 11:02:37;;;;;;;3.17;2.50;;;;;;;;;;5012482;28;20405;-96
2021/08/01 11:05:40;;;;;;;4.35;2.90;;;;;;;;;;5032273;28;20417;-96
2021/08/01 11:40:03;;;;;;;7.57;4.55;;;;;;;;;;5021502;28;20438;-92
2021/08/01 11:42:35;;;;;;;5.55;4.05;;;;;;;;;;5017333;28;20430;-91
2021/08/01 11:45:06;;;;;;;7.22;4.15;;;;;;;;;;5008443;28;20407;-91
2021/08/01 11:47:43;;;;;;;6.10;3.70;;;;;;;;;;5008323;28;20438;-91
2021/08/01 11:50:11;;;;;;;4.43;3.60;;;;;;;;;;5017820;28;20419;-92
2021/08/01 11:52:46;;;;;;;6.00;4.13;;;;;;;;;;5017032;28;20823;-93
2021/08/01 11:55:16;;;;;;;6.13;4.20;;;;;;;;;;5028833;28;20410;-94
2021/08/01 11:57:45;;;;;;;4.50;4.10;;;;;;;;;;5016223;28;20434;-94
2021/08/01 12:00:14;;;;;;;5.82;4.20;;;;;;;;;;5023000;28;20413;-95
2021/08/01 12:03:00;;;;;;;4.40;4.00;;;;;;;;;;5026645;28;20390;-94
2021/08/01 12:05:42;;;;;;;5.38;3.97;;;;;;;;;;5045800;28;20420;-96
2021/08/01 12:08:09;;;;;;;5.97;4.22;;;;;;;;;;5015960;28;20465;-95
2021/08/01 12:10:38;;;;;;;6.00;4.60;;;;;;;;;;5010110;28;20403;-95
2021/08/01 12:13:10;;;;;;;5.47;4.13;;;;;;;;;;5013867;28;20770;-95
2021/08/01 12:15:38;;;;;;;5.10;4.22;;;;;;;;;;5015683;28;20415;-96
2021/08/01 12:18:10;;;;;;;7.22;4.82;;;;;;;;;;5020091;28;20490;-95
2021/08/01 13:24:35;;;;;;;5.22;3.90;;;;;;;;;;4920052;23;20548;-79
2021/08/01 13:27:04;;;;;;;4.50;3.90;;;;;;;;;;4999226;28;20818;-81
2021/08/01 13:29:31;;;;;;;4.00;3.60;;;;;;;;;;4992000;28;20966;-80
2021/08/01 13:32:07;;;;;;;4.22;3.83;;;;;;;;;;5003158;28;20414;-96
2021/08/01 13:34:40;;;;;;;4.95;3.80;;;;;;;;;;5017281;28;20412;-96
2021/08/01 13:37:21;;;;;;;4.32;3.65;;;;;;;;;;4999490;28;20388;-96
2021/08/01 13:39:55;;;;;;;4.60;4.10;;;;;;;;;;5010599;28;20377;-96
2021/08/01 13:42:35;;;;;;;5.10;4.00;;;;;;;;;;5012498;28;20401;-96
2021/08/01 13:51:42;;;;;;;4.13;3.70;;;;;;;;;;5031037;23;20404;-81
2021/08/01 13:56:46;;;;;;;5.28;4.32;;;;;;;;;;5132957;23;20495;-96
2021/08/01 13:59:13;;;;;;;4.60;4.13;;;;;;;;;;5038288;28;20398;-94
2021/08/01 14:01:41;;;;;;;5.97;4.40;;;;;;;;;;5054104;28;20413;-96
2021/08/01 14:09:58;;;;;;;5.60;4.55;;;;;;;;;;5026244;28;20770;-80
2021/08/01 14:12:27;;;;;;;7.15;4.20;;;;;;;;;;5029141;28;20763;-94
2021/08/01 14:14:57;;;;;;;4.93;4.07;;;;;;;;;;5036690;28;20431;-92
2021/08/01 14:17:24;;;;;;;4.57;4.13;;;;;;;;;;5033228;28;20423;-94
2021/08/01 14:19:52;;;;;;;6.90;4.33;;;;;;;;;;5043314;28;20411;-95
2021/08/01 14:22:27;;;;;;;7.60;4.90;;;;;;;;;;5054527;28;20453;-96
2021/08/01 14:24:57;;;;;;;6.60;4.72;;;;;;;;;;5047815;28;20410;-95
2021/08/01 14:27:26;;;;;;;5.97;4.45;;;;;;;;;;5035211;28;20490;-95
2021/08/01 14:30:05;;;;;;;6.22;4.80;;;;;;;;;;5031149;28;20452;-94
2021/08/01 14:32:32;;;;;;;7.38;4.57;;;;;;;;;;5031192;28;20405;-93
2021/08/01 14:35:01;;;;;;;7.60;4.88;;;;;;;;;;5038324;28;20404;-92
2021/08/01 14:50:28;;;;;;;6.50;5.05;;;;;;;;;;5097569;27;20920;-93
2021/08/01 14:53:01;;;;;;;6.15;4.93;;;;;;;;;;5091426;28;20419;-95
2021/08/01 14:55:29;;;;;;;6.00;4.63;;;;;;;;;;5089438;27;20445;-94
2021/08/01 14:57:59;;;;;;;6.53;4.78;;;;;;;;;;5094670;28;20407;-95
2021/08/01 15:00:34;;;;;;;6.70;5.17;;;;;;;;;;5093318;27;20413;-95
2021/08/01 15:03:20;;;;;;;6.68;5.05;;;;;;;;;;5095114;28;20403;-96
2021/08/01 15:05:59;;;;;;;8.02;5.18;;;;;;;;;;5093312;28;20399;-96
2021/08/01 15:08:45;;;;;;;6.55;4.70;;;;;;;;;;5089252;28;20395;-96
2021/08/01 15:11:17;;;;;;;7.05;4.97;;;;;;;;;;5090001;28;20452;-95
2021/08/01 15:14:10;;;;;;;6.05;5.00;;;;;;;;;;5096276;28;20413;-95
2021/08/01 15:16:39;;;;;;;7.40;5.50;;;;;;;;;;5101738;28;20460;-92
2021/08/01 15:19:08;;;;;;;5.77;4.90;;;;;;;;;;5101592;28;20393;-94
2021/08/01 15:21:44;;;;;;;5.95;4.72;;;;;;;;;;5101648;28;20390;-94
2021/08/01 15:24:32;;;;;;;6.45;5.18;;;;;;;;;;5090945;28;20758;-96
2021/08/01 15:26:59;;;;;;;10.25;8.75;;;;;;;;;;5081843;28;20389;-93
2021/08/01 15:29:26;;;;;;;11.15;7.57;;;;;;;;;;5085231;28;20395;-93
2021/08/01 15:31:53;;;;;;;10.30;6.88;;;;;;;;;;5074966;27;20408;-91
2021/08/01 15:34:22;;;;;;;7.70;6.10;;;;;;;;;;5076696;28;20414;-93
2021/08/01 15:36:51;;;;;;;7.90;5.07;;;;;;;;;;5074384;27;20418;-92
2021/08/01 15:39:24;;;;;;;6.43;5.03;;;;;;;;;;5068257;28;20774;-95
2021/08/01 15:41:52;;;;;;;6.65;4.97;;;;;;;;;;5057550;28;20421;-94
2021/08/01 15:44:20;;;;;;;6.83;5.20;;;;;;;;;;5081412;28;20488;-95
2021/08/01 15:46:48;;;;;;;6.82;5.43;;;;;;;;;;5047128;28;20425;-96
2021/08/01 15:49:16;;;;;;;6.78;5.00;;;;;;;;;;5071976;28;20580;-96
2021/08/01 15:51:46;;;;;;;6.18;4.85;;;;;;;;;;5075072;28;20443;-96
2021/08/01 15:54:23;;;;;;;5.22;4.60;;;;;;;;;;5065597;28;20764;-96
2021/08/01 15:56:54;;;;;;;5.90;4.35;;;;;;;;;;5055610;28;20416;-96
2021/08/01 15:59:26;;;;;;;6.88;4.70;;;;;;;;;;5070972;28;20413;-95
2021/08/01 16:36:46;;;;;;;5.28;3.30;;;;;;;;;;5027228;28;20434;-96
2021/08/01 16:39:22;;;;;;;4.03;3.63;;;;;;;;;;5031932;28;20419;-95
2021/08/01 16:41:54;;;;;;;4.57;3.50;;;;;;;;;;5005476;28;20505;-96
2021/08/01 16:52:12;;;;;;;5.05;4.30;;;;;;;;;;5020735;28;20390;-96
2021/08/01 16:54:57;;;;;;;4.95;4.45;;;;;;;;;;5026763;28;20425;-95
2021/08/01 17:00:19;;;;;;;7.55;4.93;;;;;;;;;;5022460;28;20419;-95
2021/08/01 17:03:00;;;;;;;5.80;4.93;;;;;;;;;;5033920;28;20509;-95
2021/08/01 17:05:34;;;;;;;6.45;4.78;;;;;;;;;;5027864;28;20411;-95
2021/08/01 17:08:12;;;;;;;5.45;4.85;;;;;;;;;;5020004;28;20407;-95
2021/08/01 17:11:02;;;;;;;5.43;4.50;;;;;;;;;;5032246;28;20412;-96
2021/08/01 17:13:33;;;;;;;4.27;3.87;;;;;;;;;;5014176;28;20495;-96
2021/08/01 17:16:06;;;;;;;5.15;4.38;;;;;;;;;;5020234;28;20835;-96
2021/08/01 17:18:34;;;;;;;6.57;4.75;;;;;;;;;;5037340;28;20435;-96
2021/08/01 17:21:02;;;;;;;5.13;4.40;;;;;;;;;;5029266;28;20415;-96
2021/08/01 17:23:36;;;;;;;5.40;4.68;;;;;;;;;;5103217;22;20408;-96
2021/08/01 17:26:07;;;;;;;4.97;4.47;;;;;;;;;;5038537;28;20436;-95
2021/08/01 17:28:35;;;;;;;6.63;5.78;;;;;;;;;;5036584;28;20492;-95
2021/08/01 17:31:07;;;;;;;6.10;5.38;;;;;;;;;;5037313;28;20909;-96
2021/08/01 17:33:43;;;;;;;6.00;5.40;;;;;;;;;;5036152;28;20519;-96
2021/08/01 17:36:16;;;;;;;5.95;5.35;;;;;;;;;;5029546;28;20420;-89
2021/08/01 17:38:48;;;;;;;6.47;5.45;;;;;;;;;;5023697;28;20413;-82
2021/08/01 17:41:20;;;;;;;5.73;4.70;;;;;;;;;;5024708;28;20897;-91
2021/08/01 17:43:48;;;;;;;6.00;5.03;;;;;;;;;;5009019;28;20431;-92
2021/08/01 17:46:18;;;;;;;5.45;4.60;;;;;;;;;;5027954;28;20444;-92
2021/08/01 17:48:45;;;;;;;5.15;4.65;;;;;;;;;;5029446;28;20437;-91
2021/08/01 17:51:15;;;;;;;5.70;4.30;;;;;;;;;;5027172;28;20409;-85
2021/08/01 17:53:45;;;;;;;6.63;4.87;;;;;;;;;;5025730;28;20899;-85
2021/08/01 17:56:13;;;;;;;4.90;4.40;;;;;;;;;;5027285;28;20925;-91
2021/08/01 17:58:44;;;;;;;5.57;4.20;;;;;;;;;;5029060;28;20471;-90
2021/08/01 18:01:11;;;;;;;4.43;4.03;;;;;;;;;;5029868;28;20421;-92
2021/08/01 18:03:39;;;;;;;6.13;4.97;;;;;;;;;;5030582;28;20412;-95
2021/08/01 18:06:10;;;;;;;8.13;4.97;;;;;;;;;;5028083;28;20808;-80
2021/08/01 18:08:48;;;;;;;10.93;5.00;;;;;;;;;;5007718;28;20405;-89
2021/08/01 18:11:18;;;;;;;7.10;4.90;;;;;;;;;;5027414;28;20412;-95
2021/08/01 18:13:55;;;;;;;9.43;5.10;;;;;;;;;;5020446;28;20428;-95
2021/08/01 18:16:25;;;;;;;6.07;4.10;;;;;;;;;;5032386;28;20496;-96
2021/08/01 18:18:58;;;;;;;7.23;4.70;;;;;;;;;;5038625;28;20452;-96
2021/08/01 18:21:26;;;;;;;5.30;3.47;;;;;;;;;;5033657;28;20925;-96
2021/08/01 18:23:57;;;;;;;4.43;3.15;;;;;;;;;;5034342;28;20429;-96
2021/08/01 18:26:26;;;;;;;4.97;2.85;;;;;;;;;;5036014;28;21451;-96
2021/08/01 18:28:58;;;;;;;4.07;2.53;;;;;;;;;;5031321;28;20417;-95
2021/08/01 18:31:27;;;;;;;4.70;3.00;;;;;;;;;;5028779;28;20417;-96
2021/08/01 18:33:54;;;;;;;3.20;2.90;;;;;;;;;;5030671;28;20452;-96
2021/08/01 18:36:23;;;;;;;5.18;3.47;;;;;;;;;;5030460;28;20417;-95
2021/08/01 18:38:50;;;;;;;3.83;3.10;;;;;;;;;;5048653;28;20416;-95
2021/08/01 18:41:22;;;;;;;4.75;3.17;;;;;;;;;;5050978;28;20398;-95
2021/08/01 18:43:52;;;;;;;5.22;3.10;;;;;;;;;;5048302;28;20404;-94
2021/08/01 18:46:22;;;;;;;5.00;3.20;;;;;;;;;;5047416;28;20405;-93
2021/08/01 18:48:51;;;;;;;3.60;3.00;;;;;;;;;;5038826;28;20621;-94
2021/08/01 18:51:26;;;;;;;6.00;2.95;;;;;;;;;;5030520;28;20409;-94
2021/08/01 18:54:01;;;;;;;3.42;2.67;;;;;;;;;;5025872;28;20945;-93
2021/08/01 18:56:30;;;;;;;4.43;2.50;;;;;;;;;;5010318;28;20946;-94
2021/08/01 18:59:00;;;;;;;4.35;3.05;;;;;;;;;;5026594;28;20459;-96
2021/08/01 19:01:29;;;;;;;4.95;2.40;;;;;;;;;;5026555;28;20424;-93
2021/08/01 19:03:56;;;;;;;3.83;2.40;;;;;;;;;;5027373;28;20452;-93
2021/08/01 19:06:23;;;;;;;3.22;2.50;;;;;;;;;;5027043;28;20445;-94
2021/08/01 19:08:51;;;;;;;3.63;2.10;;;;;;;;;;5030660;28;20416;-93
2021/08/01 19:11:18;;;;;;;5.43;2.60;;;;;;;;;;5029972;28;20782;-92
2021/08/01 19:13:45;;;;;;;3.65;2.28;;;;;;;;;;5029896;28;20809;-92
2021/08/01 19:16:18;;;;;;;3.90;2.65;;;;;;;;;;5037627;28;20416;-91
2021/08/01 19:18:58;;;;;;;3.95;2.80;;;;;;;;;;5032859;28;20413;-95
2021/08/01 19:21:33;;;;;;;4.38;3.17;;;;;;;;;;5037086;28;20417;-92
2021/08/01 19:24:04;;;;;;;3.88;2.90;;;;;;;;;;5025022;28;20729;-92
2021/08/01 19:26:35;;;;;;;4.05;3.08;;;;;;;;;;5029720;28;20429;-92
2021/08/01 19:29:02;;;;;;;4.75;3.85;;;;;;;;;;5026405;28;20405;-92
2021/08/01 19:31:33;;;;;;;4.15;3.70;;;;;;;;;;5028200;28;20421;-93
2021/08/01 19:34:13;;;;;;;5.13;3.72;;;;;;;;;;5027575;28;20443;-92
2021/08/01 19:36:42;;;;;;;5.90;4.50;;;;;;;;;;5027018;28;21164;-92
2021/08/01 19:39:17;;;;;;;4.85;4.07;;;;;;;;;;5030130;28;20420;-91
2021/08/01 19:41:45;;;;;;;6.05;4.13;;;;;;;;;;5027891;28;20418;-91
2021/08/01 19:44:13;;;;;;;4.97;4.38;;;;;;;;;;5011408;28;20904;-91
2021/08/01 19:46:43;;;;;;;7.15;4.85;;;;;;;;;;5026964;28;20440;-90
2021/08/01 19:49:12;;;;;;;6.18;4.15;;;;;;;;;;5011999;28;20467;-90
2021/08/01 19:51:41;;;;;;;5.95;4.82;;;;;;;;;;5029941;28;20777;-91
2021/08/01 19:54:08;;;;;;;5.85;4.80;;;;;;;;;;5029462;28;20878;-91
2021/08/01 19:56:36;;;;;;;6.93;4.47;;;;;;;;;;5030047;28;20428;-91
2021/08/01 19:59:03;;;;;;;6.35;4.93;;;;;;;;;;5029673;28;20417;-90
2021/08/01 20:01:31;;;;;;;7.07;5.40;;;;;;;;;;5029387;28;20475;-90
2021/08/01 20:03:58;;;;;;;5.60;4.80;;;;;;;;;;5029802;28;20413;-90
2021/08/01 20:06:27;;;;;;;7.63;4.95;;;;;;;;;;5028521;28;20421;-90
2021/08/01 20:08:55;;;;;;;6.03;5.00;;;;;;;;;;5011710;28;20967;-90
2021/08/01 20:11:24;;;;;;;6.32;4.88;;;;;;;;;;5028019;28;20409;-93
2021/08/01 20:13:52;;;;;;;8.48;5.05;;;;;;;;;;5011096;28;20406;-91
2021/08/01 20:16:20;;;;;;;6.35;4.85;;;;;;;;;;5028792;28;20417;-92
2021/08/01 20:18:48;;;;;;;6.45;4.80;;;;;;;;;;5029239;28;20413;-92
2021/08/01 20:21:16;;;;;;;8.30;5.50;;;;;;;;;;5028062;28;20428;-93
2021/08/01 20:23:45;;;;;;;7.95;5.60;;;;;;;;;;5025980;28;20424;-92
2021/08/01 20:26:13;;;;;;;7.97;5.70;;;;;;;;;;5028982;28;20460;-90
2021/08/01 20:28:44;;;;;;;6.78;5.70;;;;;;;;;;5027729;28;20413;-92
2021/08/01 20:31:11;;;;;;;8.10;5.63;;;;;;;;;;5029074;28;20927;-93
2021/08/01 20:33:38;;;;;;;7.73;5.40;;;;;;;;;;5028670;28;20405;-90
2021/08/01 20:36:05;;;;;;;7.75;5.30;;;;;;;;;;5029401;28;20410;-91
2021/08/01 20:38:33;;;;;;;7.28;5.47;;;;;;;;;;5011541;28;20405;-89
2021/08/01 20:41:01;;;;;;;9.38;6.07;;;;;;;;;;5029057;28;20420;-92
2021/08/01 20:43:29;;;;;;;7.15;6.13;;;;;;;;;;5027342;28;20467;-93
2021/08/01 20:45:57;;;;;;;9.82;6.20;;;;;;;;;;5029293;28;20409;-91
2021/08/01 20:48:23;;;;;;;8.13;6.20;;;;;;;;;;5029511;28;20397;-92
2021/08/01 20:50:50;;;;;;;9.37;6.00;;;;;;;;;;5011255;28;20940;-93
2021/08/01 20:53:20;;;;;;;7.25;5.80;;;;;;;;;;5027909;28;20401;-90
2021/08/01 20:55:48;;;;;;;7.57;6.15;;;;;;;;;;5029275;28;20417;-91
2021/08/01 20:58:16;;;;;;;6.80;5.75;;;;;;;;;;5026777;28;20449;-92
2021/08/01 21:00:43;;;;;;;7.00;5.95;;;;;;;;;;5029690;28;20420;-92
2021/08/01 21:03:10;;;;;;;7.85;6.10;;;;;;;;;;5029664;28;20409;-93
2021/08/01 21:05:38;;;;;;;6.50;5.90;;;;;;;;;;5029596;28;20405;-92
2021/08/01 21:08:05;;;;;;;10.32;6.38;;;;;;;;;;5029845;28;20413;-93
2021/08/01 21:10:32;;;;;;;7.82;6.10;;;;;;;;;;5027507;28;20418;-92
2021/08/01 21:12:59;;;;;;;6.60;5.97;;;;;;;;;;5028688;28;20881;-93
2021/08/01 21:15:28;;;;;;;7.28;5.93;;;;;;;;;;5029643;28;20929;-93
2021/08/01 21:17:55;;;;;;;7.32;5.82;;;;;;;;;;5029783;28;20413;-93
2021/08/01 21:20:22;;;;;;;7.80;6.22;;;;;;;;;;5029058;28;20416;-93
2021/08/01 21:22:49;;;;;;;7.00;6.20;;;;;;;;;;5029133;28;20409;-92
2021/08/01 21:25:16;;;;;;;9.45;6.43;;;;;;;;;;5025979;28;20909;-92
2021/08/01 21:27:43;;;;;;;7.53;6.55;;;;;;;;;;5028872;28;20405;-92
2021/08/01 21:30:11;;;;;;;9.13;6.97;;;;;;;;;;5029046;28;20413;-92
2021/08/01 21:32:39;;;;;;;9.52;6.72;;;;;;;;;;5028647;28;20407;-92
2021/08/01 21:35:07;;;;;;;10.75;7.68;;;;;;;;;;5028754;28;20401;-92
2021/08/01 21:37:35;;;;;;;8.10;6.90;;;;;;;;;;5029035;28;20821;-92
2021/08/01 21:40:02;;;;;;;9.45;7.30;;;;;;;;;;5029321;28;20433;-92
2021/08/01 21:42:29;;;;;;;9.55;6.95;;;;;;;;;;5029287;28;20419;-92
2021/08/01 21:44:56;;;;;;;7.88;7.03;;;;;;;;;;5028561;28;20460;-91
2021/08/01 21:47:23;;;;;;;10.52;7.60;;;;;;;;;;5028487;28;20409;-93
2021/08/01 21:49:51;;;;;;;9.80;8.75;;;;;;;;;;5028386;28;20397;-92
2021/08/01 21:52:18;;;;;;;10.27;8.65;;;;;;;;;;5028507;28;20475;-92
2021/08/01 21:54:46;;;;;;;10.20;9.05;;;;;;;;;;5028213;28;20405;-92
2021/08/01 21:57:13;;;;;;;9.70;8.70;;;;;;;;;;5028497;28;20397;-92
2021/08/01 21:59:40;;;;;;;10.02;8.32;;;;;;;;;;5027734;28;20816;-92
2021/08/01 22:02:07;;;;;;;9.65;8.20;;;;;;;;;;5028461;28;20416;-92
2021/08/01 22:04:42;;;;;;;10.10;7.60;;;;;;;;;;5028854;28;20774;-92
2021/08/01 22:07:11;;;;;;;8.87;6.80;;;;;;;;;;5027554;28;20413;-92
2021/08/01 22:09:41;;;;;;;8.47;6.70;;;;;;;;;;5028351;28;20507;-92
2021/08/01 22:12:08;;;;;;;7.80;6.60;;;;;;;;;;5027943;28;20405;-92
2021/08/01 22:14:37;;;;;;;7.18;6.20;;;;;;;;;;5028426;28;20412;-92
2021/08/01 22:17:06;;;;;;;8.10;6.38;;;;;;;;;;5027756;28;20436;-92
2021/08/01 22:19:33;;;;;;;7.68;6.10;;;;;;;;;;5028054;28;20425;-92
2021/08/01 22:22:01;;;;;;;8.37;6.73;;;;;;;;;;5043643;28;20439;-92
2021/08/01 22:24:30;;;;;;;8.10;6.38;;;;;;;;;;5027450;28;20911;-91
2021/08/01 22:26:59;;;;;;;7.95;6.25;;;;;;;;;;5009729;28;20771;-92
2021/08/01 22:29:27;;;;;;;6.25;5.65;;;;;;;;;;5027844;28;20409;-93
2021/08/01 22:31:56;;;;;;;6.43;5.40;;;;;;;;;;5027777;28;20911;-93
2021/08/01 22:34:24;;;;;;;6.93;5.85;;;;;;;;;;5027800;28;20409;-92
2021/08/01 22:36:53;;;;;;;7.57;5.47;;;;;;;;;;5037093;28;20405;-91
2021/08/01 22:39:22;;;;;;;5.60;4.80;;;;;;;;;;5040569;28;20429;-92
2021/08/01 22:41:51;;;;;;;5.97;5.40;;;;;;;;;;5049429;28;20405;-93
2021/08/01 22:44:20;;;;;;;6.85;5.60;;;;;;;;;;5049246;28;20405;-92
2021/08/01 22:46:48;;;;;;;7.45;5.18;;;;;;;;;;5029506;28;20475;-92
2021/08/01 22:49:17;;;;;;;6.43;4.88;;;;;;;;;;5007727;28;20430;-92
2021/08/01 22:51:44;;;;;;;5.63;4.60;;;;;;;;;;5027957;28;20412;-93
2021/08/01 22:54:14;;;;;;;6.03;4.75;;;;;;;;;;5028195;28;20409;-92
2021/08/01 22:56:42;;;;;;;7.25;5.30;;;;;;;;;;5026884;28;20420;-92
2021/08/01 22:59:11;;;;;;;5.90;5.30;;;;;;;;;;5027677;28;20889;-93
2021/08/01 23:01:44;;;;;;;5.55;5.03;;;;;;;;;;5030567;28;20421;-92
2021/08/01 23:04:11;;;;;;;6.85;5.30;;;;;;;;;;5028933;28;20412;-92